Main page
METAR-TAF:

METAR-TAF

Airports :

Princess Juliana International Airport

Sint Maarten, Netherlands Antilles

latitude: 18-03N, longitude: 063-07W, elevation: 4 m

Current weather observation

The report was made 27 minutes ago, at 01:00 UTC
Wind 5 kt from the Northeast
Temperature 25°C
Humidity 61%
Pressure 1015 hPa
Visibility 10 km or more
Few clouds at a height of 2200 ft

METAR: TNCM 110100Z 04005KT 9999 FEW022 25/17 Q1015 NOSIG

Time: 21:27 (01:27 UTC)

Forecast

The report was made 2 hours and 7 minutes ago, at 23:20 UTC
Forecast valid from 11 at 00 UTC to 11 at 24 UTC
Wind 8 kt from the North/Northeast
Visibility: 10 km
Scattered clouds at a height of 2000 ft
From 11 at 1400 UTC
Wind 12 kt from the Northeast
Visibility: 10 km
Few clouds at a height of 2000 ft

TAF: TNCM 102320Z 1100/1124 03008KT P6SM SCT020 FM111400 05012KT P6SM FEW020

Weather observations and forecasts of more than 4000 airports (METAR and TAF reports).

The available stations are represented by yellow and red dots on the map.

Hover mouse over dot to see the name of the station.

Then click to see weather observations and forecasts.

To change the map : click on the green buttons with a black cross to zoom in, on the green button with a dash to zoom out, or on the green arrows for adjacent maps.


METAR-TAF: